createdAt,value
2018-02-10T00:02:06.739Z,66.27
2018-02-10T00:04:35.042Z,59.23
2018-02-10T00:07:03.287Z,56.27
2018-02-10T00:09:31.574Z,65.00
2018-02-10T00:11:59.856Z,56.17
2018-02-10T00:14:28.175Z,57.33
2018-02-10T00:16:56.482Z,66.53
2018-02-10T00:19:24.728Z,61.40
2018-02-10T00:21:53.793Z,63.53
2018-02-10T00:24:22.044Z,54.07
2018-02-10T00:26:50.316Z,73.43
2018-02-10T00:29:19.343Z,63.83
2018-02-10T00:31:47.609Z,73.00
2018-02-10T00:34:15.913Z,82.53
2018-02-10T00:36:44.213Z,61.10
2018-02-10T00:39:12.520Z,73.67
2018-02-10T00:41:40.783Z,62.77
2018-02-10T00:44:09.086Z,64.63
2018-02-10T00:46:37.311Z,64.40
2018-02-10T00:49:06.344Z,63.07
2018-02-10T00:51:34.593Z,72.43
2018-02-10T00:54:03.643Z,67.27
2018-02-10T00:56:31.914Z,65.17
2018-02-10T00:59:00.204Z,74.37
2018-02-10T01:01:28.475Z,80.07
2018-02-10T01:03:56.739Z,70.43
2018-02-10T01:06:25.007Z,81.30
2018-02-10T01:08:53.296Z,81.67
2018-02-10T01:11:21.578Z,88.40
2018-02-10T01:13:49.861Z,80.93
2018-02-10T01:16:18.105Z,78.27
2018-02-10T01:18:46.378Z,78.33
2018-02-10T01:21:14.890Z,76.47
2018-02-10T01:23:43.180Z,69.07
2018-02-10T01:26:11.438Z,78.50
2018-02-10T01:28:40.866Z,72.70
2018-02-10T01:31:09.109Z,71.37
2018-02-10T01:33:37.381Z,72.97
2018-02-10T01:36:05.655Z,62.37
2018-02-10T01:38:33.952Z,80.50
2018-02-10T01:41:02.239Z,74.93
2018-02-10T01:43:30.519Z,58.23
2018-02-10T01:45:58.810Z,92.97
2018-02-10T01:48:27.110Z,70.13
2018-02-10T01:50:55.371Z,82.00
2018-02-10T01:53:23.669Z,66.67
2018-02-10T01:55:52.049Z,58.17
2018-02-10T01:58:20.294Z,86.07
2018-02-10T02:00:48.570Z,72.33
2018-02-10T02:03:16.863Z,94.93
2018-02-10T02:05:45.113Z,70.50
2018-02-10T02:08:13.398Z,73.47
2018-02-10T02:10:41.635Z,73.47
2018-02-10T02:13:10.637Z,72.90
2018-02-10T02:15:39.658Z,66.17
2018-02-10T02:18:07.890Z,59.13
2018-02-10T02:20:36.909Z,70.87
2018-02-10T02:23:05.190Z,59.60
2018-02-10T02:25:33.410Z,71.20
2018-02-10T02:28:01.690Z,62.60
2018-02-10T02:30:29.942Z,76.13
2018-02-10T02:32:58.233Z,70.40
2018-02-10T02:35:26.489Z,70.23
2018-02-10T02:37:54.724Z,80.37
2018-02-10T02:40:23.775Z,71.97
2018-02-10T02:42:52.054Z,77.57
2018-02-10T02:45:20.322Z,70.00
2018-02-10T02:47:48.575Z,86.40
2018-02-10T02:50:16.854Z,68.70
2018-02-10T02:52:45.873Z,68.50
2018-02-10T02:55:14.123Z,73.90
2018-02-10T02:57:42.450Z,63.27
2018-02-10T03:00:10.720Z,71.27
2018-02-10T03:02:38.998Z,72.83
2018-02-10T03:05:07.368Z,72.33
2018-02-10T03:07:35.622Z,62.60
2018-02-10T03:10:03.906Z,91.57
2018-02-10T03:12:32.196Z,55.83
2018-02-10T03:15:00.436Z,67.63
2018-02-10T03:17:28.694Z,64.80
2018-02-10T03:19:57.709Z,64.20
2018-02-10T03:22:25.995Z,64.30
2018-02-10T03:24:54.302Z,58.63
2018-02-10T03:27:22.593Z,69.50
2018-02-10T03:29:50.864Z,72.40
2018-02-10T03:32:19.141Z,74.00
2018-02-10T03:34:47.381Z,68.93
2018-02-10T03:37:15.646Z,66.10
2018-02-10T03:39:44.661Z,64.20
2018-02-10T03:42:12.924Z,79.60
2018-02-10T03:44:41.205Z,76.80
2018-02-10T03:47:09.486Z,58.53
2018-02-10T03:49:37.739Z,59.17
2018-02-10T03:52:06.744Z,67.97
2018-02-10T03:54:34.997Z,70.60
2018-02-10T03:57:04.033Z,80.93
2018-02-10T03:59:32.291Z,64.57
2018-02-10T04:02:01.304Z,73.87
2018-02-10T04:04:29.568Z,74.17
2018-02-10T04:06:57.852Z,61.70
2018-02-10T04:09:26.983Z,62.77
2018-02-10T04:11:55.270Z,65.20
2018-02-10T04:14:23.511Z,65.83
2018-02-10T04:16:51.784Z,62.67
2018-02-10T04:19:20.083Z,76.77
2018-02-10T04:21:48.323Z,54.70
2018-02-10T04:24:17.337Z,76.50
2018-02-10T04:26:45.618Z,70.23
2018-02-10T04:29:13.852Z,63.47
2018-02-10T04:31:42.898Z,62.50
2018-02-10T04:34:11.137Z,67.73
2018-02-10T04:36:40.205Z,58.93
2018-02-10T04:39:08.472Z,66.90
2018-02-10T04:41:36.714Z,66.10
2018-02-10T04:44:05.103Z,77.20
2018-02-10T04:46:33.393Z,63.77
2018-02-10T04:49:01.656Z,70.50
2018-02-10T04:51:29.921Z,61.87
2018-02-10T04:53:58.175Z,68.80
2018-02-10T04:56:26.446Z,64.50
2018-02-10T04:58:55.462Z,86.47
2018-02-10T05:01:24.474Z,64.93
2018-02-10T05:03:52.773Z,64.17
2018-02-10T05:06:20.997Z,62.63
2018-02-10T05:08:50.056Z,66.27
2018-02-10T05:11:18.333Z,75.30
2018-02-10T05:13:46.592Z,76.90
2018-02-10T05:16:14.864Z,60.77
2018-02-10T05:18:43.116Z,73.70
2018-02-10T05:21:11.399Z,68.90
2018-02-10T05:23:40.420Z,63.67
2018-02-10T05:26:08.726Z,71.53
2018-02-10T05:28:36.978Z,82.40
2018-02-10T05:31:05.257Z,72.77
2018-02-10T05:33:33.533Z,81.37
2018-02-10T05:36:01.770Z,86.00
2018-02-10T05:38:30.054Z,71.93
2018-02-10T05:41:02.233Z,66.90
2018-02-10T05:43:31.964Z,72.17
2018-02-10T05:46:01.853Z,64.30
2018-02-10T05:48:31.745Z,88.13
2018-02-10T05:51:00.021Z,81.50
2018-02-10T05:53:28.273Z,69.13
2018-02-10T05:55:56.511Z,81.37
2018-02-10T05:58:24.798Z,66.00
2018-02-10T06:00:53.040Z,74.73
2018-02-10T06:03:22.093Z,77.27
2018-02-10T06:05:50.381Z,79.03
2018-02-10T06:08:18.610Z,81.30
2018-02-10T06:10:46.935Z,73.37
2018-02-10T06:13:15.194Z,69.33
2018-02-10T06:15:43.425Z,75.23
2018-02-10T06:18:12.475Z,66.13
2018-02-10T06:20:40.862Z,71.43
2018-02-10T06:23:09.117Z,73.53
2018-02-10T06:25:37.429Z,73.23
2018-02-10T06:28:05.649Z,93.30
2018-02-10T06:30:33.921Z,67.93
2018-02-10T06:33:02.954Z,74.37
2018-02-10T06:35:31.234Z,76.23
2018-02-10T06:37:59.473Z,78.10
2018-02-10T06:40:27.729Z,74.00
2018-02-10T06:42:56.746Z,75.27
2018-02-10T06:45:25.038Z,326.90
2018-02-10T06:47:53.304Z,79.00
2018-02-10T06:50:22.329Z,80.63
2018-02-10T06:52:50.603Z,78.17
2018-02-10T06:55:18.870Z,81.53
2018-02-10T06:57:47.127Z,80.70
2018-02-10T07:00:15.415Z,79.07
2018-02-10T07:02:43.686Z,77.43
2018-02-10T07:05:11.960Z,71.33
2018-02-10T07:07:40.240Z,72.90
2018-02-10T07:10:09.251Z,74.97
2018-02-10T07:12:37.581Z,72.20
2018-02-10T07:15:05.905Z,83.33
2018-02-10T07:17:34.174Z,80.70
2018-02-10T07:20:02.523Z,81.57
2018-02-10T07:22:30.784Z,71.80
2018-02-10T07:24:59.042Z,83.23
2018-02-10T07:27:27.466Z,83.00
2018-02-10T07:29:56.500Z,77.13
2018-02-10T07:32:24.766Z,72.67
2018-02-10T07:34:53.010Z,90.63
2018-02-10T07:37:22.053Z,78.60
2018-02-10T07:39:50.308Z,85.47
2018-02-10T07:42:19.377Z,81.27
2018-02-10T07:44:47.624Z,69.27
2018-02-10T07:47:15.924Z,90.63
2018-02-10T07:49:44.230Z,77.37
2018-02-10T07:52:12.489Z,94.90
2018-02-10T07:54:41.522Z,79.77
2018-02-10T07:57:09.784Z,84.63
2018-02-10T07:59:38.801Z,88.20
2018-02-10T08:02:07.091Z,84.00
2018-02-10T08:04:35.325Z,80.30
2018-02-10T08:07:04.353Z,82.13
2018-02-10T08:09:32.651Z,79.63
2018-02-10T08:12:00.885Z,79.23
2018-02-10T08:14:29.877Z,81.10
2018-02-10T08:16:58.162Z,72.93
2018-02-10T08:19:26.438Z,78.30
2018-02-10T08:21:54.688Z,68.50
2018-02-10T08:24:23.732Z,72.37
2018-02-10T08:26:52.026Z,73.50
2018-02-10T08:29:20.270Z,65.30
2018-02-10T08:31:48.568Z,79.57
2018-02-10T08:34:16.810Z,78.00
2018-02-10T08:36:45.834Z,67.67
2018-02-10T08:39:14.080Z,56.43
2018-02-10T08:41:43.107Z,64.73
2018-02-10T08:44:11.352Z,52.20
2018-02-10T08:46:40.425Z,69.33
2018-02-10T08:49:10.153Z,50.63
2018-02-10T08:51:39.299Z,57.10
2018-02-10T08:54:07.594Z,53.47
2018-02-10T08:56:35.902Z,55.70
2018-02-10T08:59:04.964Z,61.07
2018-02-10T09:01:33.196Z,58.67
2018-02-10T09:04:01.456Z,60.83
2018-02-10T09:06:30.543Z,67.23
2018-02-10T09:08:59.593Z,53.37
2018-02-10T09:11:27.863Z,51.73
2018-02-10T09:13:56.150Z,51.80
2018-02-10T09:16:24.415Z,59.10
2018-02-10T09:18:52.696Z,65.47
2018-02-10T09:21:20.968Z,51.80
2018-02-10T09:23:49.297Z,55.83
2018-02-10T09:26:17.539Z,53.67
2018-02-10T09:28:45.818Z,47.93
2018-02-10T09:31:14.096Z,54.87
2018-02-10T09:33:42.387Z,51.67
2018-02-10T09:36:10.647Z,55.50
2018-02-10T09:38:38.900Z,50.90
2018-02-10T09:41:07.192Z,43.00
2018-02-10T09:43:35.471Z,48.43
2018-02-10T09:46:03.721Z,35.57
2018-02-10T09:48:32.082Z,40.70
2018-02-10T09:51:00.353Z,41.93
2018-02-10T09:53:43.474Z,46.70
2018-02-10T09:56:11.746Z,37.47
2018-02-10T09:58:40.004Z,38.87
2018-02-10T10:01:08.292Z,46.33
2018-02-10T10:03:36.585Z,41.30
2018-02-10T10:06:04.847Z,39.00
2018-02-10T10:08:33.123Z,46.87
2018-02-10T10:11:01.426Z,38.20
2018-02-10T10:13:30.460Z,37.30
2018-02-10T10:15:58.719Z,38.57
2018-02-10T10:18:27.715Z,42.70
2018-02-10T10:20:56.002Z,36.47
2018-02-10T10:23:24.257Z,40.40
2018-02-10T10:25:52.534Z,28.47
2018-02-10T10:28:21.559Z,32.93
2018-02-10T10:30:49.800Z,42.57
2018-02-10T10:33:18.877Z,34.13
2018-02-10T10:35:47.200Z,32.80
2018-02-10T10:38:15.445Z,35.27
2018-02-10T10:40:44.510Z,41.43
2018-02-10T10:43:12.929Z,39.40
2018-02-10T10:45:41.138Z,39.37
2018-02-10T10:48:09.447Z,33.67
2018-02-10T10:50:37.697Z,38.80
2018-02-10T10:53:05.985Z,39.97
2018-02-10T10:55:34.255Z,36.87
2018-02-10T10:58:02.508Z,38.97
2018-02-10T11:00:31.531Z,35.83
2018-02-10T11:02:59.879Z,35.90
2018-02-10T11:05:28.995Z,33.87
2018-02-10T11:07:58.011Z,34.07
2018-02-10T11:10:26.675Z,31.73
2018-02-10T11:12:55.717Z,44.13
2018-02-10T11:15:24.853Z,36.20
2018-02-10T11:17:53.915Z,34.50
2018-02-10T11:20:22.170Z,44.83
2018-02-10T11:22:50.461Z,30.77
2018-02-10T11:25:18.782Z,31.77
2018-02-10T11:27:48.076Z,43.10
2018-02-10T11:30:16.353Z,32.30
2018-02-10T11:32:46.135Z,32.93
2018-02-10T11:35:15.195Z,33.40
2018-02-10T11:37:43.467Z,36.43
2018-02-10T11:40:11.731Z,33.70
2018-02-10T11:42:40.800Z,31.37
2018-02-10T11:45:09.089Z,34.07
2018-02-10T11:47:37.337Z,39.10
2018-02-10T11:50:05.643Z,40.83
2018-02-10T11:52:34.696Z,38.93
2018-02-10T11:55:03.033Z,37.13
2018-02-10T11:57:31.360Z,39.07
2018-02-10T11:59:59.619Z,35.77
2018-02-10T12:02:27.912Z,36.80
2018-02-10T12:04:56.190Z,36.80
2018-02-10T12:07:24.558Z,35.50
2018-02-10T12:09:53.241Z,37.50
2018-02-10T12:12:21.553Z,41.77
2018-02-10T12:14:49.823Z,43.60
2018-02-10T12:17:18.122Z,34.33
2018-02-10T12:19:46.470Z,34.30
2018-02-10T12:22:15.353Z,25.80
2018-02-10T12:24:43.649Z,32.40
2018-02-10T12:27:11.962Z,33.20
2018-02-10T12:29:40.198Z,29.07
2018-02-10T12:32:08.445Z,32.10
2018-02-10T12:34:36.743Z,31.77
2018-02-10T12:37:05.896Z,33.80
2018-02-10T12:39:34.208Z,30.73
2018-02-10T12:42:02.552Z,30.13
2018-02-10T12:44:30.820Z,29.23
2018-02-10T12:47:00.175Z,28.00
2018-02-10T12:49:30.714Z,36.17
2018-02-10T12:51:58.976Z,29.70
2018-02-10T12:54:28.449Z,28.17
2018-02-10T12:56:58.681Z,33.20
2018-02-10T12:59:27.151Z,31.53
2018-02-10T13:01:55.404Z,28.87
2018-02-10T13:04:23.657Z,31.40
2018-02-10T13:06:51.909Z,33.57
2018-02-10T13:09:20.182Z,24.37
2018-02-10T13:11:48.456Z,25.43
2018-02-10T13:14:17.473Z,26.07
2018-02-10T13:16:45.751Z,26.73
2018-02-10T13:19:14.022Z,22.93
2018-02-10T13:21:42.328Z,22.97
2018-02-10T13:24:10.606Z,26.33
2018-02-10T13:26:38.901Z,24.10
2018-02-10T13:29:07.194Z,26.03
2018-02-10T13:31:36.250Z,22.97
2018-02-10T13:34:04.516Z,27.53
2018-02-10T13:36:32.769Z,26.93
2018-02-10T13:39:01.090Z,24.07
2018-02-10T13:41:29.363Z,28.93
2018-02-10T13:43:57.664Z,25.73
2018-02-10T13:46:26.029Z,27.73
2018-02-10T13:48:54.318Z,27.90
2018-02-10T13:51:22.566Z,22.77
2018-02-10T13:53:50.840Z,22.50
2018-02-10T13:56:19.086Z,29.90
2018-02-10T13:58:47.364Z,25.93
2018-02-10T14:01:15.664Z,24.63
2018-02-10T14:03:43.947Z,22.27
2018-02-10T14:06:12.211Z,23.23
2018-02-10T14:08:40.517Z,19.07
2018-02-10T14:11:08.796Z,25.37
2018-02-10T14:13:37.071Z,20.50
2018-02-10T14:16:05.348Z,22.50
2018-02-10T14:18:33.884Z,19.97
2018-02-10T14:21:02.197Z,25.00
2018-02-10T14:23:30.619Z,22.37
2018-02-10T14:25:58.842Z,29.17
2018-02-10T14:28:27.110Z,19.80
2018-02-10T14:30:55.460Z,29.20
2018-02-10T14:33:23.682Z,25.50
2018-02-10T14:35:52.055Z,27.33
2018-02-10T14:38:20.352Z,25.60
2018-02-10T14:40:48.626Z,37.03
2018-02-10T14:43:16.931Z,28.77
2018-02-10T14:45:45.184Z,24.50
2018-02-10T14:48:13.628Z,27.47
2018-02-10T14:50:42.663Z,34.60
2018-02-10T14:53:10.964Z,26.57
2018-02-10T14:55:40.788Z,29.20
2018-02-10T14:58:10.566Z,34.70
2018-02-10T15:00:38.815Z,29.20
2018-02-10T15:03:07.807Z,31.70
2018-02-10T15:05:36.119Z,26.80
2018-02-10T15:08:04.437Z,29.80
2018-02-10T15:10:33.036Z,30.90
2018-02-10T15:13:02.081Z,32.27
2018-02-10T15:15:30.352Z,32.20
2018-02-10T15:17:58.626Z,33.37
2018-02-10T15:20:27.014Z,32.60
2018-02-10T15:22:55.293Z,35.23
2018-02-10T15:25:23.527Z,30.87
2018-02-10T15:27:52.524Z,37.17
2018-02-10T15:30:32.824Z,40.53
2018-02-10T15:33:12.966Z,42.27
2018-02-10T15:35:41.231Z,25.50
2018-02-10T15:38:09.494Z,32.23
2018-02-10T15:40:38.557Z,49.07
2018-02-10T15:43:06.794Z,41.33
2018-02-10T15:45:35.049Z,33.10
2018-02-10T15:48:03.350Z,39.47
2018-02-10T15:50:31.646Z,28.10
2018-02-10T15:52:59.937Z,35.90
2018-02-10T15:55:28.199Z,44.60
2018-02-10T15:57:56.502Z,29.47
2018-02-10T16:00:25.545Z,40.47
2018-02-10T16:02:53.882Z,37.90
2018-02-10T16:05:22.147Z,31.20
2018-02-10T16:07:50.443Z,39.67
2018-02-10T16:10:18.721Z,32.70
2018-02-10T16:12:46.981Z,37.13
2018-02-10T16:15:15.251Z,34.90
2018-02-10T16:17:43.551Z,31.33
2018-02-10T16:20:11.803Z,33.07
2018-02-10T16:22:40.110Z,35.57
2018-02-10T16:25:09.147Z,33.23
2018-02-10T16:27:37.474Z,31.67
2018-02-10T16:30:05.845Z,34.57
2018-02-10T16:32:34.143Z,43.23
2018-02-10T16:35:02.437Z,32.57
2018-02-10T16:37:31.467Z,26.40
2018-02-10T16:39:59.793Z,32.10
2018-02-10T16:42:28.135Z,32.60
2018-02-10T16:44:56.506Z,35.20
2018-02-10T16:47:24.805Z,35.10
2018-02-10T16:49:53.075Z,29.00
2018-02-10T16:52:21.395Z,36.43
2018-02-10T16:54:49.708Z,31.90
2018-02-10T16:57:17.976Z,27.47
2018-02-10T16:59:46.244Z,30.63
2018-02-10T17:02:14.531Z,30.80
2018-02-10T17:04:42.848Z,44.97
2018-02-10T17:07:11.145Z,30.73
2018-02-10T17:09:39.429Z,37.43
2018-02-10T17:12:07.699Z,37.47
2018-02-10T17:14:36.749Z,33.87
2018-02-10T17:17:04.989Z,46.53
2018-02-10T17:19:33.336Z,35.57
2018-02-10T17:22:01.583Z,40.17
2018-02-10T17:24:29.840Z,42.20
2018-02-10T17:26:58.115Z,37.63
2018-02-10T17:29:26.729Z,34.87
2018-02-10T17:31:55.065Z,35.60
2018-02-10T17:34:23.338Z,37.00
2018-02-10T17:36:52.392Z,42.23
2018-02-10T17:39:20.665Z,46.03
2018-02-10T17:41:48.956Z,32.63
2018-02-10T17:44:17.244Z,50.40
2018-02-10T17:46:45.490Z,34.07
2018-02-10T17:49:13.776Z,39.97
2018-02-10T17:51:43.766Z,36.10
2018-02-10T17:54:12.028Z,33.70
2018-02-10T17:56:40.298Z,38.00
2018-02-10T17:59:09.397Z,33.00
2018-02-10T18:01:38.437Z,42.03
2018-02-10T18:04:06.702Z,34.03
2018-02-10T18:06:34.997Z,31.00
2018-02-10T18:09:04.815Z,32.87
2018-02-10T18:11:33.048Z,44.43
2018-02-10T18:14:02.068Z,35.30
2018-02-10T18:16:30.378Z,38.03
2018-02-10T18:18:58.646Z,35.20
2018-02-10T18:21:26.953Z,49.53
2018-02-10T18:23:55.215Z,40.30
2018-02-10T18:26:24.284Z,34.13
2018-02-10T18:28:52.695Z,35.77
2018-02-10T18:31:20.926Z,39.83
2018-02-10T18:33:49.235Z,36.23
2018-02-10T18:36:17.474Z,45.27
2018-02-10T18:38:45.776Z,47.63
2018-02-10T18:41:14.127Z,39.33
2018-02-10T18:43:43.129Z,51.07
2018-02-10T18:46:11.461Z,43.83
2018-02-10T18:48:40.140Z,47.57
2018-02-10T18:51:08.374Z,45.00
2018-02-10T18:53:36.860Z,51.00
2018-02-10T18:56:05.840Z,48.33
2018-02-10T18:58:34.096Z,47.43
2018-02-10T19:01:02.384Z,46.30
2018-02-10T19:03:31.390Z,49.03
2018-02-10T19:05:59.686Z,42.97
2018-02-10T19:08:27.946Z,43.83
2018-02-10T19:10:56.273Z,50.13
2018-02-10T19:13:24.774Z,57.00
2018-02-10T19:15:53.007Z,52.63
2018-02-10T19:18:21.279Z,44.50
2018-02-10T19:20:49.523Z,53.93
2018-02-10T19:23:17.808Z,56.37
2018-02-10T19:25:46.106Z,69.87
2018-02-10T19:28:14.366Z,68.70
2018-02-10T19:30:42.668Z,45.93
2018-02-10T19:33:10.946Z,45.17
2018-02-10T19:35:39.215Z,96.73
2018-02-10T19:38:07.492Z,45.13
2018-02-10T19:40:35.910Z,46.73
2018-02-10T19:43:04.246Z,37.93
2018-02-10T19:45:32.515Z,48.90
2018-02-10T19:48:00.853Z,38.27
2018-02-10T19:50:29.111Z,43.33
2018-02-10T19:52:57.368Z,39.43
2018-02-10T19:55:25.628Z,36.27
2018-02-10T19:57:53.981Z,45.40
2018-02-10T20:00:22.276Z,46.00
2018-02-10T20:02:51.377Z,38.67
2018-02-10T20:05:20.484Z,42.67
2018-02-10T20:07:48.743Z,46.30
2018-02-10T20:10:17.031Z,45.90
2018-02-10T20:12:45.289Z,32.23
2018-02-10T20:15:13.561Z,47.30
2018-02-10T20:17:42.633Z,40.77
2018-02-10T20:20:10.974Z,40.93
2018-02-10T20:22:39.232Z,28.47
2018-02-10T20:25:08.274Z,41.10
2018-02-10T20:27:37.344Z,32.83
2018-02-10T20:30:05.632Z,30.40
2018-02-10T20:32:33.933Z,33.00
2018-02-10T20:35:02.184Z,32.97
2018-02-10T20:37:30.515Z,26.43
2018-02-10T20:39:59.577Z,26.23
2018-02-10T20:42:27.915Z,29.13
2018-02-10T20:44:57.932Z,26.80
2018-02-10T20:47:26.182Z,25.00
2018-02-10T20:49:55.304Z,26.60
2018-02-10T20:52:24.345Z,26.60
2018-02-10T20:54:52.613Z,24.03
2018-02-10T20:57:21.328Z,29.77
2018-02-10T20:59:49.603Z,27.13
2018-02-10T21:02:17.882Z,30.33
2018-02-10T21:04:46.140Z,27.40
2018-02-10T21:07:14.436Z,21.90
2018-02-10T21:09:43.498Z,28.20
2018-02-10T21:12:11.807Z,27.30
2018-02-10T21:14:40.162Z,29.50
2018-02-10T21:17:08.439Z,22.10
2018-02-10T21:19:36.728Z,25.33
2018-02-10T21:22:05.045Z,22.63
2018-02-10T21:24:34.083Z,21.60
2018-02-10T21:27:02.338Z,21.03
2018-02-10T21:29:30.659Z,26.37
2018-02-10T21:31:58.961Z,21.13
2018-02-10T21:34:27.264Z,22.13
2018-02-10T21:36:55.600Z,25.60
2018-02-10T21:39:23.850Z,25.40
2018-02-10T21:41:52.109Z,32.17
2018-02-10T21:44:20.401Z,20.23
2018-02-10T21:46:49.500Z,34.63
2018-02-10T21:49:17.773Z,19.50
2018-02-10T21:51:46.007Z,22.03
2018-02-10T21:54:14.344Z,20.70
2018-02-10T21:56:42.622Z,22.67
2018-02-10T21:59:10.947Z,20.30
2018-02-10T22:01:40.285Z,24.10
2018-02-10T22:04:08.616Z,20.07
2018-02-10T22:06:37.677Z,25.57
2018-02-10T22:09:05.945Z,27.80
2018-02-10T22:11:34.196Z,20.37
2018-02-10T22:14:02.489Z,20.07
2018-02-10T22:16:30.794Z,20.07
2018-02-10T22:18:59.103Z,24.27
2018-02-10T22:21:28.874Z,21.90
2018-02-10T22:23:58.082Z,23.60
2018-02-10T22:26:26.352Z,23.43
2018-02-10T22:28:54.635Z,28.93
2018-02-10T22:31:22.951Z,20.80
2018-02-10T22:33:51.199Z,21.03
2018-02-10T22:36:19.493Z,19.67
2018-02-10T22:38:47.754Z,24.83
2018-02-10T22:41:16.034Z,23.07
2018-02-10T22:43:44.300Z,22.10
2018-02-10T22:46:12.611Z,23.37
2018-02-10T22:48:40.893Z,24.57
2018-02-10T22:51:09.955Z,20.80
2018-02-10T22:53:38.245Z,20.90
2018-02-10T22:56:08.042Z,22.97
2018-02-10T22:58:36.299Z,23.40
2018-02-10T23:01:10.198Z,15.70
2018-02-10T23:03:38.474Z,21.27
2018-02-10T23:06:06.731Z,17.90
2018-02-10T23:08:35.804Z,17.50
2018-02-10T23:11:04.037Z,18.33
2018-02-10T23:13:32.294Z,17.33
2018-02-10T23:16:01.308Z,14.07
2018-02-10T23:18:29.621Z,23.77
2018-02-10T23:20:57.833Z,21.93
2018-02-10T23:23:26.185Z,16.33
2018-02-10T23:25:55.633Z,19.27
2018-02-10T23:28:24.364Z,17.27
2018-02-10T23:30:52.598Z,14.53
2018-02-10T23:33:20.864Z,16.13
2018-02-10T23:35:49.851Z,14.73
2018-02-10T23:38:18.931Z,18.87
2018-02-10T23:40:47.207Z,15.20
2018-02-10T23:43:16.988Z,14.20
2018-02-10T23:45:45.265Z,13.93
2018-02-10T23:48:13.505Z,18.57
2018-02-10T23:50:42.522Z,18.20
2018-02-10T23:53:10.783Z,11.10
2018-02-10T23:55:39.019Z,19.33
2018-02-10T23:58:08.785Z,20.80
